Meteo Giornale » Osservazioni meteo Italia » Napoli-Capodichino

ore: 01:50 - Osservazioni Meteo Napoli-Capodichino
Lat. 40° 51' N Lon. 14° 18' E Alt. 88 metri s.l.m.

sereno Europe/Rome

23 °C

Sereno

Temp. 24 Ore

23 °C

30 °C

Ovest

7.4 Km/h

Dew point 19 °C

Umidità 78 %

Visibilità  10 Km

Il sole sorge alle ore 05:30

Il sole tramonta alle ore 20:40

Data e Ora Cielo e Fenomeni T °C DP °C Um. % Pres. hPa Vis. km Vento km/h
Oggi h: 01:50 sereno Sereno 23 19 78 1019 10 O 7.4
Oggi h: 01:20 sereno Sereno 23 19 78 1019 10 N 3.7
Oggi h: 00:50 sereno Sereno 23 21 88 1019 10 N 0
Oggi h: 00:20 sereno Sereno 24 20 78 1019 10 N 3.7
Ieri h: 23:50 sereno Sereno 24 19 73 1019 10 N 3.7
Ieri h: 23:20 sereno Sereno 24 20 78 1019 10 N 3.7
Ieri h: 22:50 sereno Sereno 24 20 78 1019 10 N 0
Ieri h: 22:20 sereno Sereno 24 20 78 1019 10 O/SO 9.3
Ieri h: 21:50 sereno Sereno 24 20 78 1019 10 O 11.1
Ieri h: 21:20 sereno Sereno 26 19 65 1018 10 O/NO 7.4
Ieri h: 20:50 sereno Sereno 26 17 57 1018 10 O/NO 7.4
Ieri h: 20:20 sereno Sereno 27 16 50 1018 10 O/NO 7.4
Ieri h: 19:50 sereno Sereno 28 13 39 1018 10 O 9.3
Ieri h: 19:20 sereno Sereno 28 13 39 1018 10 O 13
Ieri h: 18:50 sereno Sereno 28 13 39 1018 10 O 13
Ieri h: 18:20 sereno Sereno 29 13 37 1018 10 O 14.8
Ieri h: 17:50 poco_nuvoloso Poco Nuvoloso 29 14 39 1018 10 O/NO 16.7
Ieri h: 17:20 nuvoloso Nuvoloso 30 14 37 1018 10 O/NO 16.7
Ieri h: 16:50 nuvoloso Nuvoloso 30 12 33 1018 10 O/NO 14.8
Ieri h: 16:20 poco_nuvoloso Poco Nuvoloso 30 19 51 1018 10 S/SO 9.3
Ieri h: 15:50 poco_nuvoloso Poco Nuvoloso 30 12 33 1018 10 O 13
Ieri h: 15:20 sereno Sereno 30 17 45 1019 10 O/NO 13
Ieri h: 14:50 sereno Sereno 29 20 58 1019 10 S 13
Ieri h: 14:20 sereno Sereno 28 20 61 1019 10 S 16.7
Ieri h: 13:50 sereno Sereno 28 20 61 1019 10 S 20.3
Ieri h: 13:20 sereno Sereno 29 19 54 1019 10 S 16.7
Ieri h: 12:50 sereno Sereno 28 20 61 1020 10 S/SO 14.8
Ieri h: 12:20 sereno Sereno 28 19 58 1020 10 S 14.8
Ieri h: 11:50 sereno Sereno 27 21 69 1020 10 S 16.7
Ieri h: 11:20 sereno Sereno 27 21 69 1020 10 S 14.8
Ieri h: 10:50 poco_nuvoloso Poco Nuvoloso 27 20 65 1020 10 S 14.8
Ieri h: 10:20 poco_nuvoloso Poco Nuvoloso 26 21 73 1020 10 S/SO 14.8
Ieri h: 09:20 poco_nuvoloso Poco Nuvoloso 26 21 73 1019 10 S/SO 13
Ieri h: 08:50 poco_nuvoloso Poco Nuvoloso 25 20 73 1019 10 S/SO 11.1
Ieri h: 08:20 sereno Sereno 25 20 73 1019 10 S/SO 9.3
Ieri h: 07:50 sereno Sereno 25 20 73 1019 10 S 7.4
Ieri h: 07:20 sereno Sereno 25 20 73 1019 10 N 5.5
Ieri h: 06:50 sereno Sereno 24 20 78 1019 10 N 3.7
Ieri h: 06:20 sereno Sereno 23 20 83 1018 10 N 3.7
Ieri h: 05:50 sereno Sereno 23 20 83 1018 10 N 5.5
Ieri h: 05:20 sereno Sereno 23 20 83 1018 10 N 5.5
Ieri h: 04:50 sereno Sereno 23 20 83 1018 10 N 5.5
Ieri h: 04:20 sereno Sereno 23 21 88 1018 10 N 5.5
Ieri h: 03:20 sereno Sereno 23 20 83 1018 10 N 5.5
Ieri h: 02:50 sereno Sereno 23 20 83 1018 10 N 5.5